Brentwood, North Carolina
Current Conditions -  °F | °C
As of 12:51 AM on Sunday 26 Oct 2014 (Local Time) from KRDU Reporting Station
Clear Clear  
Wind Chill: 53°   Ceiling: Unl
Heat Index: 53°   Visibility: 10mi
Dew Point: 43°   Wind: 6mph
Humidity: 69%   Direction: 230°SW
Pressure: 29.86"   Gusts: NA
Location:  35.8604°N, 78.5416°W
Report Text: KRDU 260451Z 23005KT 10SM CLR 12/06 A2986 RMK AO2 SLP109 T01170061 402170039 $
Loading
Personal Weather Stations






























Interactive Weather Map
Tropical Storm Tracking
New forecast layout! Learn more

10-Day Weather Forecast

Advertisements
Track Severe Weather on mobile